sensor_id;sensor_type;location;lat;lon;timestamp;temperature;humidity
35633;DHT22;21754;48.216;-1.628;2023-02-26T00:14:55;6.40;99.90
35633;DHT22;21754;48.216;-1.628;2023-02-26T00:17:41;6.00;99.90
35633;DHT22;21754;48.216;-1.628;2023-02-26T00:20:09;6.00;99.90
35633;DHT22;21754;48.216;-1.628;2023-02-26T00:29:54;5.90;99.90
35633;DHT22;21754;48.216;-1.628;2023-02-26T00:32:20;5.80;99.90
35633;DHT22;21754;48.216;-1.628;2023-02-26T00:34:46;5.80;99.90
35633;DHT22;21754;48.216;-1.628;2023-02-26T00:40:17;5.80;99.90
35633;DHT22;21754;48.216;-1.628;2023-02-26T00:42:45;5.70;99.90
35633;DHT22;21754;48.216;-1.628;2023-02-26T00:45:12;5.70;99.90
35633;DHT22;21754;48.216;-1.628;2023-02-26T00:47:50;5.70;99.90
35633;DHT22;21754;48.216;-1.628;2023-02-26T00:50:20;5.80;99.90
35633;DHT22;21754;48.216;-1.628;2023-02-26T02:08:04;5.70;99.90
35633;DHT22;21754;48.216;-1.628;2023-02-26T02:10:30;5.10;99.90
35633;DHT22;21754;48.216;-1.628;2023-02-26T02:13:01;4.90;99.90
35633;DHT22;21754;48.216;-1.628;2023-02-26T02:15:29;4.90;99.90
35633;DHT22;21754;48.216;-1.628;2023-02-26T02:24:03;5.00;99.90
35633;DHT22;21754;48.216;-1.628;2023-02-26T02:57:33;4.90;99.90
35633;DHT22;21754;48.216;-1.628;2023-02-26T03:00:05;4.80;99.90
35633;DHT22;21754;48.216;-1.628;2023-02-26T03:05:02;4.80;99.90
35633;DHT22;21754;48.216;-1.628;2023-02-26T03:07:30;4.80;99.90
35633;DHT22;21754;48.216;-1.628;2023-02-26T03:09:56;4.80;99.90
35633;DHT22;21754;48.216;-1.628;2023-02-26T03:12:25;4.80;99.90
35633;DHT22;21754;48.216;-1.628;2023-02-26T03:14:51;4.90;99.90
35633;DHT22;21754;48.216;-1.628;2023-02-26T03:17:32;5.10;99.90
35633;DHT22;21754;48.216;-1.628;2023-02-26T03:23:04;4.80;99.90
35633;DHT22;21754;48.216;-1.628;2023-02-26T03:31:06;4.80;99.90
35633;DHT22;21754;48.216;-1.628;2023-02-26T03:36:37;4.60;99.90
35633;DHT22;21754;48.216;-1.628;2023-02-26T03:39:20;4.50;99.90
35633;DHT22;21754;48.216;-1.628;2023-02-26T03:44:57;4.40;99.90
35633;DHT22;21754;48.216;-1.628;2023-02-26T03:47:24;4.40;99.90
35633;DHT22;21754;48.216;-1.628;2023-02-26T03:52:34;4.30;99.90
35633;DHT22;21754;48.216;-1.628;2023-02-26T03:55:14;4.30;99.90
35633;DHT22;21754;48.216;-1.628;2023-02-26T03:57:41;4.20;99.90
35633;DHT22;21754;48.216;-1.628;2023-02-26T04:00:09;4.10;99.90
35633;DHT22;21754;48.216;-1.628;2023-02-26T04:02:41;4.20;99.90
35633;DHT22;21754;48.216;-1.628;2023-02-26T04:05:13;4.20;99.90
35633;DHT22;21754;48.216;-1.628;2023-02-26T04:07:40;4.20;99.90
35633;DHT22;21754;48.216;-1.628;2023-02-26T04:10:07;4.10;99.90
35633;DHT22;21754;48.216;-1.628;2023-02-26T04:12:34;4.00;99.90
35633;DHT22;21754;48.216;-1.628;2023-02-26T04:15:00;4.10;99.90
35633;DHT22;21754;48.216;-1.628;2023-02-26T04:17:25;4.00;99.90
35633;DHT22;21754;48.216;-1.628;2023-02-26T04:19:51;4.00;99.90
35633;DHT22;21754;48.216;-1.628;2023-02-26T04:22:17;4.00;99.90
35633;DHT22;21754;48.216;-1.628;2023-02-26T04:24:42;3.90;99.90
35633;DHT22;21754;48.216;-1.628;2023-02-26T04:27:08;3.90;99.90
35633;DHT22;21754;48.216;-1.628;2023-02-26T04:29:34;4.00;99.90
35633;DHT22;21754;48.216;-1.628;2023-02-26T04:31:59;3.90;99.90
35633;DHT22;21754;48.216;-1.628;2023-02-26T04:34:26;4.00;99.90
35633;DHT22;21754;48.216;-1.628;2023-02-26T09:36:41;3.90;99.90
35633;DHT22;21754;48.216;-1.628;2023-02-26T09:39:08;5.80;99.90
35633;DHT22;21754;48.216;-1.628;2023-02-26T09:41:48;5.80;99.90
35633;DHT22;21754;48.216;-1.628;2023-02-26T09:44:24;5.80;99.90
35633;DHT22;21754;48.216;-1.628;2023-02-26T10:12:49;6.10;99.90
35633;DHT22;21754;48.216;-1.628;2023-02-26T10:15:39;6.90;99.90
35633;DHT22;21754;48.216;-1.628;2023-02-26T10:18:31;6.90;99.90
35633;DHT22;21754;48.216;-1.628;2023-02-26T10:21:14;7.10;99.90
35633;DHT22;21754;48.216;-1.628;2023-02-26T10:23:44;7.20;99.90
35633;DHT22;21754;48.216;-1.628;2023-02-26T10:28:51;6.90;99.90
35633;DHT22;21754;48.216;-1.628;2023-02-26T10:31:48;6.90;99.90
35633;DHT22;21754;48.216;-1.628;2023-02-26T10:39:37;7.20;99.90
35633;DHT22;21754;48.216;-1.628;2023-02-26T10:42:20;7.30;99.90
35633;DHT22;21754;48.216;-1.628;2023-02-26T11:02:39;7.10;99.90
35633;DHT22;21754;48.216;-1.628;2023-02-26T11:05:12;7.60;99.90
35633;DHT22;21754;48.216;-1.628;2023-02-26T11:07:40;7.70;99.90
35633;DHT22;21754;48.216;-1.628;2023-02-26T11:10:18;7.90;99.90
35633;DHT22;21754;48.216;-1.628;2023-02-26T11:12:44;7.70;99.90
35633;DHT22;21754;48.216;-1.628;2023-02-26T11:15:15;7.50;99.90
35633;DHT22;21754;48.216;-1.628;2023-02-26T11:17:41;7.50;99.90
35633;DHT22;21754;48.216;-1.628;2023-02-26T11:22:51;7.80;99.90
35633;DHT22;21754;48.216;-1.628;2023-02-26T11:25:18;7.90;99.90
35633;DHT22;21754;48.216;-1.628;2023-02-26T11:27:48;8.00;99.90
35633;DHT22;21754;48.216;-1.628;2023-02-26T11:30:15;8.10;99.90
35633;DHT22;21754;48.216;-1.628;2023-02-26T11:32:43;8.00;99.90
35633;DHT22;21754;48.216;-1.628;2023-02-26T16:09:43;8.50;99.90
35633;DHT22;21754;48.216;-1.628;2023-02-26T16:12:14;8.30;90.20
35633;DHT22;21754;48.216;-1.628;2023-02-26T16:14:45;8.40;89.40
35633;DHT22;21754;48.216;-1.628;2023-02-26T16:17:13;8.30;86.10
35633;DHT22;21754;48.216;-1.628;2023-02-26T16:19:45;8.30;88.50
35633;DHT22;21754;48.216;-1.628;2023-02-26T16:22:24;8.30;88.20
35633;DHT22;21754;48.216;-1.628;2023-02-26T16:24:56;8.20;87.70
35633;DHT22;21754;48.216;-1.628;2023-02-26T16:29:54;8.60;89.30
35633;DHT22;21754;48.216;-1.628;2023-02-26T16:32:20;8.50;90.80
35633;DHT22;21754;48.216;-1.628;2023-02-26T16:34:52;8.50;88.20
35633;DHT22;21754;48.216;-1.628;2023-02-26T16:40:05;8.20;82.60
35633;DHT22;21754;48.216;-1.628;2023-02-26T16:47:58;8.20;92.30
35633;DHT22;21754;48.216;-1.628;2023-02-26T16:50:27;8.00;90.60
35633;DHT22;21754;48.216;-1.628;2023-02-26T16:53:05;7.70;88.20
35633;DHT22;21754;48.216;-1.628;2023-02-26T16:55:34;7.70;87.40
35633;DHT22;21754;48.216;-1.628;2023-02-26T16:58:02;7.70;90.70
35633;DHT22;21754;48.216;-1.628;2023-02-26T17:00:31;7.70;93.00
35633;DHT22;21754;48.216;-1.628;2023-02-26T17:03:26;7.40;94.30
35633;DHT22;21754;48.216;-1.628;2023-02-26T17:08:30;7.10;94.70
35633;DHT22;21754;48.216;-1.628;2023-02-26T17:11:02;7.00;97.00
35633;DHT22;21754;48.216;-1.628;2023-02-26T17:13:31;7.10;98.00
35633;DHT22;21754;48.216;-1.628;2023-02-26T17:16:09;7.00;98.90
35633;DHT22;21754;48.216;-1.628;2023-02-26T23:10:12;7.00;97.90
35633;DHT22;21754;48.216;-1.628;2023-02-26T23:12:38;4.60;99.90
35633;DHT22;21754;48.216;-1.628;2023-02-26T23:15:05;4.50;99.90
35633;DHT22;21754;48.216;-1.628;2023-02-26T23:17:31;4.50;99.90
35633;DHT22;21754;48.216;-1.628;2023-02-26T23:19:57;4.50;99.90
